Wednesday, June 20, 2018, 5:14 PM EDT
Back to Local

KVSF, Hartness State Airport

Location: Perkinsville, VT, United States Lat: 43.35
Local Time: 5:14 PM EDT (21:14 GMT) Lon: -72.517
Time Zone: US/Eastern Elev: 577 ft

Show me the last for .
Show Coded

Time T Td Feel RH Dir Speed Gust Alt SLP Vis Weather Sky Remarks
2018-06-20 16:54 77 49 - 37 260° 9 - 29.79 29.79 10 CLR None
2018-06-20 15:54 76 50 77 40 250° 10 - 29.81 29.81 10 CLR None
2018-06-20 14:54 77 51 78 40 240° 10 - 29.82 29.81 10 CLR None
2018-06-20 13:54 75 51 77 43 210° 9 - 29.82 29.81 10 CLR 6-hr Min Temp (2pm): 55.9°F
6-hr Max Temp (2pm): 77.0°F
2018-06-20 12:54 76 48 - 37 170° 9 - 29.83 29.83 10 CLR None
2018-06-20 11:54 75 50 77 41 160° 9 - 29.85 29.85 10 CLR None
2018-06-20 10:54 73 51 76 46 120° 7 - 29.87 29.87 10 CLR None
2018-06-20 09:54 68 53 - 58 - Calm - 29.91 29.90 10 CLR None
2018-06-20 08:54 62 51 - 67 - Calm - 29.92 29.92 10 CLR None
2018-06-20 07:54 56 50 - 80 - Calm - 29.95 29.95 10 CLR 6-hr Min Temp (8am): 45.0°F
6-hr Max Temp (8am): 55.9°F
2018-06-20 06:54 50 49 - 96 - Calm - 29.95 29.95 10 CLR None
2018-06-20 06:16 47 47 - 100 - Calm - 29.94 - 9 SCT001 None
2018-06-20 06:09 47 46 - 96 - Calm - 29.93 - 1 BR SCT001 None
2018-06-20 06:05 46 45 - 95 - Calm - 29.93 - 0 FG VV001 None
2018-06-20 05:58 46 46 - 100 - Calm - 29.93 - 1 BR FEW001 Variable visibility
2018-06-20 05:54 46 45 - 95 - Calm - 29.93 29.93 5 BR FEW001 None
2018-06-20 05:22 46 45 - 95 - Calm - 29.93 - 10 FEW001 None
2018-06-20 04:54 47 45 - 92 - Calm - 29.93 29.93 10 CLR None
2018-06-20 03:54 47 46 - 96 - Calm - 29.92 29.92 10 CLR None
2018-06-20 02:54 49 48 - 96 - Calm - 29.93 29.93 10 CLR None
2018-06-20 01:54 50 48 - 92 - Calm - 29.93 29.93 10 CLR 6-hr Min Temp (2am): 48.9°F
6-hr Max Temp (2am): 71.1°F
2018-06-20 00:54 51 49 - 92 - Calm - 29.93 29.93 10 CLR 24-hr Min Temp (1am): 51.1°F
24-hr Max Temp (1am): 77.0°F
2018-06-19 23:54 53 49 - 85 - Calm - 29.93 29.93 10 CLR None
2018-06-19 22:54 56 49 - 77 - Calm - 29.93 29.93 10 CLR None
2018-06-19 21:54 60 49 - 66 - Calm - 29.92 29.92 10 CLR None
2018-06-19 20:54 64 48 - 55 - Calm - 29.89 29.89 10 CLR None
2018-06-19 19:54 71 44 - 37 360° 3 - 29.88 29.87 10 CLR 6-hr Min Temp (8pm): 71.1°F
6-hr Max Temp (8pm): 77.0°F
2018-06-19 18:54 74 43 - 32 Variable 5 - 29.86 29.86 10 CLR None
2018-06-19 17:54 75 41 - 29 340° 9 17 29.85 29.84 10 CLR None

Support USWX by starting your Amazon purchase here.